Meteo Giornale » Osservazioni meteo Italia » Capo Mele

ore: 11:55 - Osservazioni Meteo Capo Mele
Lat. 43° 57' N Lon. 8° 10' E Alt. 220 metri s.l.m.

poco_nuvoloso Europe/Rome

14 °C

Poco Nuvoloso

Temp. 24 Ore

8 °C

14 °C

Nord/Nord-Est

7.4 Km/h

Dew point 3 °C

Umidità 47 %

Visibilità  10 Km

Il sole sorge alle ore 07:55

Il sole tramonta alle ore 16:52

Data e Ora Cielo e Fenomeni T °C DP °C Um. % Pres. hPa Vis. km Vento km/h
Oggi h: 11:55 poco_nuvoloso Poco Nuvoloso 14 3 47 1028 10 N/NE 7.4
Oggi h: 10:55 poco_nuvoloso Poco Nuvoloso 12 3 54 1028 10 N/NE 7.4
Oggi h: 09:55 poco_nuvoloso Poco Nuvoloso 11 3 57 1028 10 N 5.5
Oggi h: 08:55 nuvoloso Nuvoloso 8 1 61 1027 10 N 0
Oggi h: 07:55 sereno Sereno 9 3 66 1027 10 N/NE 7.4
Oggi h: 06:55 sereno Sereno 9 3 66 1027 10 N 3.7
Oggi h: 05:55 sereno Sereno 9 5 75 1027 10 N 0
Oggi h: 04:55 sereno Sereno 9 5 75 1027 10 N 0
Oggi h: 03:55 sereno Sereno 9 4 70 1027 10 N 0
Oggi h: 02:55 sereno Sereno 9 4 70 1027 10 N 0
Oggi h: 01:55 sereno Sereno 9 4 70 1027 10 N 0
Oggi h: 00:55 sereno Sereno 9 1 57 1026 10 N 0
Ieri h: 23:55 sereno Sereno 9 2 61 1025 10 N 0
Ieri h: 22:55 sereno Sereno 10 2 57 1025 10 N 0
Ieri h: 21:55 sereno Sereno 10 3 61 1025 10 N 0
Ieri h: 20:55 sereno Sereno 10 2 57 1025 10 N/NE 7.4
Ieri h: 19:55 poco_nuvoloso Poco Nuvoloso 11 4 61 1023 10 N/NE 7.4
Ieri h: 17:55 poco_nuvoloso Poco Nuvoloso 12 5 62 1021 10 N/NE 11.1
Ieri h: 16:55 poco_nuvoloso Poco Nuvoloso 12 6 66 1021 10 N/NE 7.4
Ieri h: 14:55 poco_nuvoloso Poco Nuvoloso 13 3 50 1020 10 NE 7.4
Ieri h: 13:55 poco_nuvoloso Poco Nuvoloso 12 2 50 1019 10 NE 7.4
Ieri h: 12:55 poco_nuvoloso Poco Nuvoloso 10 2 57 1019 10 N 5.5
Ieri h: 11:55 nuvoloso Nuvoloso 9 0 53 1018 10 NE 9.3